createdAt,value
2023-01-01T00:05:43.372Z,96.5126
2023-01-01T00:20:45.654Z,18.43499
2023-01-01T00:35:48.086Z,2.16882
2023-01-01T00:50:50.533Z,0
2023-01-01T01:05:52.783Z,0
2023-01-01T01:20:55.005Z,0
2023-01-01T01:35:57.296Z,0
2023-01-01T01:50:59.589Z,0
2023-01-01T02:06:01.811Z,0
2023-01-01T02:21:04.092Z,0
2023-01-01T02:36:06.287Z,0
2023-01-01T02:51:08.532Z,0
2023-01-01T03:06:10.871Z,0
2023-01-01T03:36:14.474Z,0
2023-01-01T03:51:16.824Z,0
2023-01-01T04:06:19.341Z,0
2023-01-01T04:21:21.685Z,0
2023-01-01T04:36:23.922Z,0
2023-01-01T04:51:26.259Z,0
2023-01-01T05:06:28.465Z,0
2023-01-01T05:21:30.912Z,0
2023-01-01T05:36:33.128Z,0
2023-01-01T06:06:36.733Z,0
2023-01-01T06:21:38.955Z,0
2023-01-01T06:36:41.381Z,0
2023-01-01T06:51:43.630Z,0
2023-01-01T07:06:45.929Z,0
2023-01-01T07:21:48.148Z,0
2023-01-01T07:36:50.349Z,0
2023-01-01T07:51:52.618Z,0
2023-01-01T08:06:55.001Z,0
2023-01-01T08:21:57.275Z,0
2023-01-01T08:36:59.547Z,0
2023-01-01T08:52:01.797Z,0
2023-01-01T09:07:04.020Z,0
2023-01-01T09:22:06.352Z,0
2023-01-01T09:37:08.615Z,0
2023-01-01T09:52:10.844Z,0
2023-01-01T10:07:13.080Z,0
2023-01-01T10:22:15.681Z,0
2023-01-01T10:37:17.923Z,0
2023-01-01T10:52:20.337Z,0
2023-01-01T11:07:22.604Z,0
2023-01-01T11:22:25.284Z,0
2023-01-01T11:37:27.507Z,0
2023-01-01T11:52:29.941Z,0
2023-01-01T12:07:32.212Z,0
2023-01-01T12:22:34.439Z,0
2023-01-01T12:37:36.704Z,0
2023-01-01T12:52:38.987Z,0
2023-01-01T13:07:41.394Z,0
2023-01-01T13:22:43.871Z,0
2023-01-01T13:37:46.111Z,0
2023-01-01T13:52:48.415Z,0
2023-01-01T14:07:52.310Z,0
2023-01-01T14:22:55.049Z,0
2023-01-01T14:37:57.242Z,0
2023-01-01T14:52:59.472Z,0
2023-01-01T15:08:01.687Z,1.08441
2023-01-01T15:23:09.959Z,14.09735
2023-01-01T15:38:12.644Z,137.72023
2023-01-01T15:53:14.950Z,403.401
2023-01-01T16:08:17.181Z,1031.27515
2023-01-01T16:23:19.470Z,1882.53796
2023-01-01T16:38:21.703Z,2369.43872
2023-01-01T16:53:23.925Z,3700.01123
2023-01-01T17:08:26.179Z,5817.86621
2023-01-01T17:23:28.501Z,7626.66455
2023-01-01T17:38:30.830Z,5063.11621
2023-01-01T17:53:33.201Z,5174.81055
2023-01-01T18:08:35.406Z,11495.84375
2023-01-01T18:23:37.602Z,13352.35547
2023-01-01T18:38:40.095Z,13629.96484
2023-01-01T18:53:42.366Z,13140.89551
2023-01-01T19:08:44.740Z,12630.1377
2023-01-01T19:23:46.963Z,12278.78906
2023-01-01T19:38:49.192Z,12830.75391
2023-01-01T19:53:51.433Z,16040.61133
2023-01-01T20:08:53.722Z,16879.94531
2023-01-01T20:23:56.101Z,15303.21191
2023-01-01T20:38:58.362Z,16677.16016
2023-01-01T20:54:00.553Z,16535.10352
2023-01-01T21:09:02.822Z,16524.25977
2023-01-01T21:24:05.059Z,10374.5625
2023-01-01T21:39:07.344Z,8153.68848
2023-01-01T21:54:09.577Z,8316.34961
2023-01-01T22:09:11.822Z,5730.0293
2023-01-01T22:24:14.206Z,3871.34814
2023-01-01T22:39:16.434Z,3991.71777
2023-01-01T22:54:18.701Z,4418.97607
2023-01-01T23:09:21.049Z,2471.37329
2023-01-01T23:24:23.257Z,1755.66187
2023-01-01T23:39:25.478Z,1089.83337
2023-01-01T23:54:27.769Z,500.99802
